« Back
NWS Peachtree City, Ga » Text Product » AHN Terminal Aerodrome Forecast


Printer-friendly Version
Current Version              Previous Versions:   1  2  3  4  5  6  7  8  9  

Terminal Aerodrome Forecast

062
FTUS42 KFFC 291127
TAFAHN
TAF
KAHN 291127Z 2912/3012 00000KT P6SM SCT002 SCT150
      TEMPO 2912/2913 4SM BR BKN002
     FM291330 32005KT P6SM SCT040 SCT250
     FM292300 VRB03KT P6SM SCT250=

USA.gov is the U.S. government's official web portal to all federal, state and local government web resources and services.